Time;durP1;ratioP1;P1;durP2;ratioP2;P2;SDS_P1;SDS_P2;PMS_P1;PMS_P2;Temp;Humidity;BMP_temperature;BMP_pressure;BME280_temperature;BME280_humidity;BME280_pressure;Samples;Min_cycle;Max_cycle;Signal;HPM_P1;HPM_P2
2023/05/31 00:01:31;;;;;;;;;5.00;5.00;;;;;26.19;33.14;102203.44;6305376;22;45458;-74
2023/05/31 00:03:56;;;;;;;;;4.00;4.00;;;;;26.20;33.50;102199.78;6304294;22;45936;-74
2023/05/31 00:06:22;;;;;;;;;4.67;4.67;;;;;26.18;33.50;102199.09;6302935;22;48440;-75
2023/05/31 00:08:47;;;;;;;;;7.00;5.00;;;;;26.17;33.66;102200.13;6305259;22;45311;-74
2023/05/31 00:11:12;;;;;;;;;4.33;4.33;;;;;26.18;33.74;102189.25;6303244;22;45320;-74
2023/05/31 00:13:40;;;;;;;;;7.00;4.67;;;;;26.20;33.51;102191.78;6305233;22;45423;-75
2023/05/31 00:16:07;;;;;;;;;5.00;4.00;;;;;26.17;33.72;102195.63;6304365;22;45561;-74
2023/05/31 00:18:32;;;;;;;;;5.00;5.00;;;;;26.13;33.95;102175.63;6303994;22;45490;-74
2023/05/31 00:20:57;;;;;;;;;6.00;6.00;;;;;26.16;33.93;102185.09;6303166;22;45548;-74
2023/05/31 00:23:23;;;;;;;;;4.67;4.67;;;;;26.20;33.46;102189.09;6305248;22;45439;-74
2023/05/31 00:25:48;;;;;;;;;5.33;5.33;;;;;26.10;33.50;102175.97;6304415;22;47234;-74
2023/05/31 00:28:14;;;;;;;;;6.00;6.00;;;;;26.17;33.54;102187.63;6304385;22;45307;-74
2023/05/31 00:30:39;;;;;;;;;3.00;3.00;;;;;25.99;34.03;102160.38;6304781;22;45275;-74
2023/05/31 00:33:05;;;;;;;;;4.00;4.00;;;;;26.10;33.97;102172.50;6304521;22;45318;-74
2023/05/31 00:35:30;;;;;;;;;4.67;4.67;;;;;26.16;33.64;102177.09;6302922;22;47491;-74
2023/05/31 00:37:56;;;;;;;;;4.67;3.67;;;;;26.19;33.94;102184.75;6304316;22;45259;-74
2023/05/31 00:40:21;;;;;;;;;5.33;5.33;;;;;26.13;34.15;102170.28;6305027;22;45294;-74
2023/05/31 00:42:46;;;;;;;;;4.00;4.00;;;;;26.13;33.65;102169.44;6304574;22;45594;-74
2023/05/31 00:45:12;;;;;;;;;7.67;5.67;;;;;26.17;33.84;102184.94;6302720;22;47325;-74
2023/05/31 00:47:37;;;;;;;;;7.33;4.00;;;;;26.18;34.14;102177.75;6303784;22;45301;-74
2023/05/31 00:50:04;;;;;;;;;4.67;4.67;;;;;26.13;33.84;102164.97;6305132;22;45193;-74
2023/05/31 00:52:31;;;;;;;;;4.00;4.00;;;;;26.14;34.30;102165.78;6304318;22;45549;-74
2023/05/31 00:54:56;;;;;;;;;6.00;5.00;;;;;26.11;34.41;102158.13;6304552;22;45250;-75
2023/05/31 00:57:22;;;;;;;;;5.00;4.00;;;;;26.18;33.89;102167.09;6305019;22;45179;-74
2023/05/31 00:59:47;;;;;;;;;4.00;4.00;;;;;26.14;34.12;102161.28;6305108;22;45516;-75
2023/05/31 01:02:17;;;;;;;;;5.67;5.00;;;;;26.18;33.98;102167.09;6304567;22;45252;-74
2023/05/31 01:04:42;;;;;;;;;4.33;4.33;;;;;26.13;34.21;102151.63;6304396;22;45550;-74
2023/05/31 01:07:09;;;;;;;;;5.00;3.00;;;;;26.18;33.92;102156.41;6304456;22;45296;-74
2023/05/31 01:09:35;;;;;;;;;4.00;4.00;;;;;26.17;33.96;102155.63;6304521;22;45347;-74
2023/05/31 01:12:14;;;;;;;;;5.33;4.67;;;;;26.20;33.99;102156.25;6304072;22;45578;-74
2023/05/31 01:14:52;;;;;;;;;5.67;5.33;;;;;26.20;34.35;102158.94;6304702;22;45442;-74
2023/05/31 01:17:38;;;;;;;;;3.33;3.33;;;;;26.17;34.03;102146.78;6303495;22;45319;-74
2023/05/31 01:20:09;;;;;;;;;4.33;4.33;;;;;26.16;34.15;102143.28;6304309;22;45170;-74
2023/05/31 01:23:02;;;;;;;;;3.67;3.67;;;;;26.16;34.30;102143.28;6304207;22;45649;-74
2023/05/31 01:26:19;;;;;;;;;5.00;5.00;;;;;26.21;34.36;102144.56;6304116;22;47088;-74
2023/05/31 01:28:50;;;;;;;;;4.00;4.00;;;;;26.20;33.90;102140.25;6178159;23;45332;-74
2023/05/31 01:31:20;;;;;;;;;5.67;3.67;;;;;26.20;34.43;102141.09;6178292;23;45268;-75
2023/05/31 01:33:48;;;;;;;;;3.67;3.67;;;;;26.16;33.88;102134.44;6178550;23;45442;-74
2023/05/31 01:36:14;;;;;;;;;3.33;3.33;;;;;26.16;34.25;102131.75;6178199;23;45474;-75
2023/05/31 01:38:39;;;;;;;;;6.00;5.67;;;;;26.15;33.97;102122.94;6178710;23;45137;-74
2023/05/31 01:41:08;;;;;;;;;3.00;3.00;;;;;26.16;34.25;102123.75;6178670;23;45263;-74
2023/05/31 01:43:36;;;;;;;;;4.67;4.67;;;;;26.15;34.15;102122.13;6179048;23;45421;-74
2023/05/31 01:46:03;;;;;;;;;4.00;4.00;;;;;26.15;34.39;102128.25;6178192;23;45400;-75
2023/05/31 01:48:28;;;;;;;;;4.67;4.67;;;;;26.15;34.12;102122.13;6178285;23;45264;-74
2023/05/31 01:50:57;;;;;;;;;6.00;4.00;;;;;26.18;34.15;102124.41;6179064;23;45268;-74
2023/05/31 01:53:23;;;;;;;;;4.67;3.00;;;;;26.21;33.93;102123.22;6179127;23;45418;-75
2023/05/31 01:55:49;;;;;;;;;3.33;3.33;;;;;26.21;34.21;102123.22;6178446;23;45531;-74
2023/05/31 01:58:17;;;;;;;;;4.67;3.67;;;;;26.14;34.17;102115.13;6178505;23;45437;-75
2023/05/31 02:00:43;;;;;;;;;1.00;0.67;;;;;26.18;34.08;102116.41;6178345;23;45287;-74
2023/05/31 02:03:09;;;;;;;;;6.67;5.33;;;;;26.18;34.67;102113.75;6194755;22;45408;-74
2023/05/31 02:05:34;;;;;;;;;3.33;3.33;;;;;26.18;34.51;102111.91;6303710;22;47229;-74
2023/05/31 02:08:00;;;;;;;;;4.67;4.67;;;;;26.19;34.65;102107.41;6304150;22;45213;-74
2023/05/31 02:10:25;;;;;;;;;5.33;5.33;;;;;26.12;34.31;102096.63;6303931;22;45249;-74
2023/05/31 02:12:53;;;;;;;;;3.33;3.00;;;;;26.16;34.71;102108.59;6304614;22;45182;-74
2023/05/31 02:15:19;;;;;;;;;3.00;3.00;;;;;26.10;34.88;102097.81;6303658;22;45635;-74
2023/05/31 02:17:46;;;;;;;;;6.00;4.00;;;;;26.11;34.50;102094.13;6303134;22;45432;-74
2023/05/31 02:20:13;;;;;;;;;6.33;4.33;;;;;26.16;34.37;102097.09;6303757;22;45327;-74
2023/05/31 02:22:43;;;;;;;;;5.00;3.67;;;;;26.19;34.32;102110.06;6304757;22;45267;-74
2023/05/31 02:25:13;;;;;;;;;4.33;3.67;;;;;26.19;34.55;102104.75;6304649;22;46088;-75
2023/05/31 02:27:39;;;;;;;;;5.00;5.00;;;;;26.17;34.31;102101.44;6304937;22;45197;-74
2023/05/31 02:30:06;;;;;;;;;3.00;3.00;;;;;26.20;34.58;102098.41;6304806;22;45132;-74
2023/05/31 02:32:35;;;;;;;;;5.00;4.00;;;;;26.14;34.77;102085.78;6305128;22;45400;-74
2023/05/31 02:35:04;;;;;;;;;4.00;3.00;;;;;26.15;34.45;102076.78;6304547;22;46529;-74
2023/05/31 02:37:30;;;;;;;;;3.67;3.67;;;;;26.17;34.46;102080.94;6304721;22;45280;-74
2023/05/31 02:39:55;;;;;;;;;5.00;4.00;;;;;26.18;34.16;102089.72;6305102;22;45162;-74
2023/05/31 02:42:21;;;;;;;;;4.00;3.00;;;;;26.16;34.02;102089.94;6305677;22;45419;-74
2023/05/31 02:44:46;;;;;;;;;6.33;5.33;;;;;26.19;34.44;102088.75;6304483;22;45408;-74
2023/05/31 02:47:11;;;;;;;;;4.67;4.67;;;;;26.14;34.82;102085.78;6303014;22;45361;-75
2023/05/31 02:49:37;;;;;;;;;2.67;2.67;;;;;26.15;34.36;102096.25;6305164;22;45265;-74
2023/05/31 02:52:03;;;;;;;;;5.67;5.67;;;;;26.21;34.50;102096.56;6305383;22;45533;-74
2023/05/31 02:54:28;;;;;;;;;5.67;5.33;;;;;26.13;34.65;102087.59;6305361;22;45322;-74
2023/05/31 02:56:53;;;;;;;;;5.67;4.33;;;;;26.17;34.13;102091.59;6304744;22;45280;-74
2023/05/31 02:59:19;;;;;;;;;3.00;3.00;;;;;26.18;34.27;102103.06;6304326;22;45253;-74
2023/05/31 03:01:45;;;;;;;;;4.00;3.00;;;;;26.23;34.63;102107.91;6305047;22;45275;-74
2023/05/31 03:04:10;;;;;;;;;4.67;4.00;;;;;26.23;34.37;102114.03;6304971;22;45310;-75
2023/05/31 03:06:35;;;;;;;;;3.33;2.33;;;;;26.22;34.18;102107.06;6304989;22;45298;-75
2023/05/31 03:09:01;;;;;;;;;5.00;5.00;;;;;26.16;34.31;102097.94;6305471;22;45260;-75
2023/05/31 03:11:26;;;;;;;;;4.00;4.00;;;;;26.20;34.29;102106.41;6305133;22;45466;-75
2023/05/31 03:13:51;;;;;;;;;2.67;2.67;;;;;26.21;34.14;102101.88;6304424;22;45272;-74
2023/05/31 03:16:20;;;;;;;;;4.33;4.33;;;;;26.13;34.25;102090.28;6305385;22;45281;-74
2023/05/31 03:18:45;;;;;;;;;5.00;5.00;;;;;26.23;34.69;102102.56;6305088;22;45296;-75
2023/05/31 03:21:11;;;;;;;;;4.00;2.33;;;;;26.15;34.55;102095.44;6305260;22;45170;-75
2023/05/31 03:23:36;;;;;;;;;2.67;2.00;;;;;26.17;34.49;102096.09;6304889;22;46872;-74
2023/05/31 03:26:01;;;;;;;;;5.00;5.00;;;;;26.19;34.35;102096.75;6304838;22;45302;-75
2023/05/31 03:28:27;;;;;;;;;7.00;5.00;;;;;26.15;34.66;102090.13;6303080;22;45336;-74
2023/05/31 03:30:52;;;;;;;;;4.00;3.00;;;;;26.20;34.64;102101.09;6304656;22;45154;-74
2023/05/31 03:33:17;;;;;;;;;3.00;3.00;;;;;26.14;34.57;102086.63;6304378;22;46296;-74
2023/05/31 03:35:43;;;;;;;;;4.00;4.00;;;;;26.13;34.83;102084.09;6304636;22;45364;-74
2023/05/31 03:38:08;;;;;;;;;4.67;4.67;;;;;26.18;34.36;102087.06;6304840;22;45262;-74
2023/05/31 03:40:33;;;;;;;;;6.67;3.00;;;;;26.13;34.42;102073.44;6304896;22;45234;-74
2023/05/31 03:42:59;;;;;;;;;4.33;4.33;;;;;26.17;34.43;102075.59;6304232;22;45369;-74
2023/05/31 03:45:24;;;;;;;;;4.00;4.00;;;;;26.09;34.35;102072.97;6304844;22;45312;-75
2023/05/31 03:47:50;;;;;;;;;4.33;4.33;;;;;26.14;34.68;102075.94;6305088;22;45353;-74
2023/05/31 03:50:15;;;;;;;;;4.67;4.67;;;;;26.20;34.59;102093.06;6304714;22;45435;-74
2023/05/31 03:52:40;;;;;;;;;5.33;4.00;;;;;26.01;34.71;102055.22;6305178;22;46094;-75
2023/05/31 03:55:06;;;;;;;;;4.33;3.67;;;;;26.14;34.70;102085.78;6305118;22;45304;-74
2023/05/31 03:57:31;;;;;;;;;5.33;5.33;;;;;26.10;34.43;102071.97;6304769;22;45312;-74
2023/05/31 03:59:57;;;;;;;;;3.67;3.00;;;;;26.15;34.45;102088.25;6305435;22;45424;-74
2023/05/31 04:02:23;;;;;;;;;4.00;4.00;;;;;26.13;34.67;102086.78;6304518;22;47651;-75
2023/05/31 04:04:49;;;;;;;;;4.33;4.33;;;;;26.12;34.25;102085.13;6305000;22;45302;-75
2023/05/31 04:07:14;;;;;;;;;4.33;4.33;;;;;26.16;34.44;102083.75;6305221;22;45324;-75
2023/05/31 04:09:39;;;;;;;;;4.33;4.33;;;;;26.16;34.38;102086.41;6304643;22;45305;-75
2023/05/31 04:12:05;;;;;;;;;4.00;4.00;;;;;26.14;34.81;102081.28;6304699;22;45525;-75
2023/05/31 04:14:31;;;;;;;;;6.33;4.67;;;;;26.21;34.58;102094.72;6305108;22;45289;-74
2023/05/31 04:16:56;;;;;;;;;8.00;5.67;;;;;26.18;34.61;102087.06;6302987;22;45290;-75
2023/05/31 04:19:21;;;;;;;;;8.00;5.00;;;;;26.19;34.62;102083.41;6304648;22;45404;-75
2023/05/31 04:21:46;;;;;;;;;3.67;3.67;;;;;26.17;34.66;102078.25;6303045;22;46177;-74
2023/05/31 04:24:12;;;;;;;;;5.33;5.00;;;;;26.18;34.59;102085.25;6304617;22;45305;-74
2023/05/31 04:26:37;;;;;;;;;5.33;5.33;;;;;26.17;34.14;102083.59;6303409;22;45306;-74
2023/05/31 04:29:03;;;;;;;;;6.67;6.67;;;;;26.18;35.11;102079.06;6304610;22;45444;-75
2023/05/31 04:31:29;;;;;;;;;3.67;3.67;;;;;26.21;34.86;102085.88;6304480;22;47229;-74
2023/05/31 04:33:56;;;;;;;;;4.67;4.67;;;;;26.20;34.69;102085.06;6304966;22;45317;-74
2023/05/31 04:36:25;;;;;;;;;4.00;4.00;;;;;26.20;34.86;102085.06;6304675;22;45363;-74
2023/05/31 04:38:51;;;;;;;;;6.00;3.00;;;;;26.20;34.92;102094.91;6304418;22;45157;-75
2023/05/31 04:41:17;;;;;;;;;5.00;4.00;;;;;26.25;34.56;102097.88;6302016;22;46604;-75
2023/05/31 04:43:42;;;;;;;;;5.67;5.00;;;;;26.22;34.38;102087.56;6304145;22;45154;-74
2023/05/31 04:46:09;;;;;;;;;6.33;6.00;;;;;26.20;34.84;102087.75;6304782;22;45424;-74
2023/05/31 04:48:38;;;;;;;;;5.00;5.00;;;;;26.23;34.73;102089.22;6303309;22;45317;-74
2023/05/31 04:51:04;;;;;;;;;6.33;6.33;;;;;26.21;34.77;102083.22;6302454;22;47396;-75
2023/05/31 04:53:30;;;;;;;;;4.00;4.00;;;;;26.18;34.45;102085.25;6304505;22;45248;-74
2023/05/31 04:55:55;;;;;;;;;5.67;5.67;;;;;26.16;35.18;102081.09;6304082;22;45165;-75
2023/05/31 04:58:20;;;;;;;;;4.67;4.67;;;;;26.29;34.83;102104.50;6305154;22;45282;-74
2023/05/31 05:00:46;;;;;;;;;3.33;3.33;;;;;26.25;34.72;102085.38;6304275;22;46250;-75
2023/05/31 05:03:12;;;;;;;;;7.00;7.00;;;;;26.28;34.68;102097.53;6304877;22;45212;-75
2023/05/31 05:05:37;;;;;;;;;7.67;6.67;;;;;26.20;34.86;102077.06;6305066;22;45250;-75
2023/05/31 05:08:03;;;;;;;;;5.00;5.00;;;;;26.28;34.85;102093.00;6304689;22;45363;-74
2023/05/31 05:10:28;;;;;;;;;6.67;4.33;;;;;26.21;34.54;102086.72;6303847;22;45902;-75
2023/05/31 05:12:54;;;;;;;;;5.00;5.00;;;;;26.27;34.56;102102.03;6304436;22;45250;-74
2023/05/31 05:15:19;;;;;;;;;5.33;5.33;;;;;26.22;34.61;102090.22;6304695;22;45178;-74
2023/05/31 05:17:45;;;;;;;;;4.00;4.00;;;;;26.26;34.87;102103.00;6304699;22;45288;-74
2023/05/31 05:20:11;;;;;;;;;3.00;3.00;;;;;26.30;34.83;102100.84;6303713;22;45384;-74
2023/05/31 05:22:37;;;;;;;;;6.67;6.67;;;;;26.31;34.96;102096.34;6304561;22;45345;-73
2023/05/31 05:25:02;;;;;;;;;5.00;5.00;;;;;26.26;34.87;102092.34;6303745;22;45347;-74
2023/05/31 05:27:28;;;;;;;;;6.00;4.67;;;;;26.22;34.69;102093.72;6302056;22;45240;-74
2023/05/31 05:29:53;;;;;;;;;3.00;3.00;;;;;26.29;34.80;102100.00;6303461;22;46133;-74
2023/05/31 05:32:18;;;;;;;;;10.25;9.00;;;;;26.30;34.15;102100.84;6302438;22;46079;-73
2023/05/31 05:34:44;;;;;;;;;13.33;11.00;;;;;26.27;33.91;102090.50;6304665;22;45319;-73
2023/05/31 05:37:09;;;;;;;;;10.00;8.33;;;;;26.34;33.71;102099.44;6304108;22;45529;-73
2023/05/31 05:39:35;;;;;;;;;10.67;9.00;;;;;26.39;34.13;102104.25;6303300;22;46901;-77
2023/05/31 05:42:02;;;;;;;;;10.33;10.33;;;;;26.38;33.40;102106.09;6304717;22;45257;-77
2023/05/31 05:44:28;;;;;;;;;15.00;13.75;;;;;26.27;33.76;102093.19;6303983;22;45236;-74
2023/05/31 05:46:53;;;;;;;;;10.25;8.50;;;;;26.26;33.36;102104.84;6303803;22;45305;-74
2023/05/31 05:49:18;;;;;;;;;9.75;9.75;;;;;26.29;33.62;102104.50;6303977;22;45309;-75
2023/05/31 05:51:44;;;;;;;;;12.25;10.25;;;;;26.38;33.78;102116.78;6303148;22;45247;-74
2023/05/31 05:54:09;;;;;;;;;13.00;10.25;;;;;26.43;33.39;102091.38;6304136;22;45336;-74
2023/05/31 05:56:35;;;;;;;;;11.67;9.33;;;;;26.72;33.19;102101.34;6304912;22;45321;-75
2023/05/31 05:59:00;;;;;;;;;11.50;11.00;;;;;26.93;32.46;102105.09;6305039;22;45864;-72
2023/05/31 06:01:26;;;;;;;;;8.67;8.00;;;;;27.07;32.98;102111.47;6305077;22;45295;-73
2023/05/31 06:03:52;;;;;;;;;8.67;8.67;;;;;27.02;32.98;102100.50;6305426;22;45258;-73
2023/05/31 06:06:17;;;;;;;;;9.33;9.33;;;;;27.17;32.58;102107.72;6305160;22;45259;-73
2023/05/31 06:08:44;;;;;;;;;12.00;9.00;;;;;27.32;32.06;102101.56;6303274;22;45479;-75
2023/05/31 06:11:09;;;;;;;;;12.33;10.33;;;;;27.38;32.13;102096.28;6305196;22;45301;-74
2023/05/31 06:13:34;;;;;;;;;9.00;8.00;;;;;27.58;32.40;102105.56;6304865;22;45262;-74
2023/05/31 06:16:01;;;;;;;;;7.00;6.33;;;;;27.77;31.98;102105.97;6305642;22;45189;-74
2023/05/31 06:18:27;;;;;;;;;8.67;8.00;;;;;27.92;32.02;102109.44;6304868;22;46560;-73
2023/05/31 06:20:53;;;;;;;;;9.33;7.33;;;;;27.93;32.59;102108.44;6304695;22;52709;-73
2023/05/31 06:23:19;;;;;;;;;6.33;6.33;;;;;27.95;31.75;102110.91;6305001;22;45398;-72
2023/05/31 06:25:44;;;;;;;;;7.67;7.00;;;;;27.98;32.13;102115.03;6302896;22;45486;-71
2023/05/31 06:28:10;;;;;;;;;10.67;10.67;;;;;27.89;32.44;102106.34;6304645;22;45809;-71
2023/05/31 06:30:36;;;;;;;;;11.67;9.00;;;;;27.88;32.39;102100.16;6304435;22;45310;-72
2023/05/31 06:33:01;;;;;;;;;7.00;6.33;;;;;27.91;32.13;102105.13;6304790;22;45291;-72
2023/05/31 06:35:26;;;;;;;;;12.67;8.67;;;;;27.87;32.69;102098.47;6304105;22;45513;-71
2023/05/31 06:37:52;;;;;;;;;11.67;10.00;;;;;27.90;32.50;102098.09;6304645;22;46272;-71
2023/05/31 06:40:18;;;;;;;;;8.67;7.67;;;;;27.83;33.07;102087.34;6304891;22;45519;-71
2023/05/31 06:42:43;;;;;;;;;9.33;9.33;;;;;27.84;32.27;102097.03;6305018;22;45225;-72
2023/05/31 06:45:09;;;;;;;;;17.75;12.75;;;;;27.81;32.87;102083.22;6305080;22;45454;-71
2023/05/31 06:47:35;;;;;;;;;17.75;16.75;;;;;27.76;33.13;102085.59;6304347;22;46082;-72
2023/05/31 06:50:01;;;;;;;;;20.25;18.25;;;;;27.79;32.71;102087.91;6303977;22;45183;-71
2023/05/31 06:52:27;;;;;;;;;23.75;21.00;;;;;27.77;33.47;102082.72;6303330;22;45355;-71
2023/05/31 06:54:52;;;;;;;;;26.00;20.75;;;;;27.77;33.13;102081.88;6302186;22;45195;-72
2023/05/31 06:57:17;;;;;;;;;19.50;18.50;;;;;27.74;33.37;102081.25;6302083;22;46482;-72
2023/05/31 06:59:43;;;;;;;;;24.50;22.25;;;;;27.78;33.29;102089.75;6302738;22;45451;-72
2023/05/31 07:02:08;;;;;;;;;30.75;24.50;;;;;27.80;32.72;102085.06;6304479;22;45387;-72
2023/05/31 07:04:34;;;;;;;;;26.75;22.75;;;;;27.79;33.18;102082.56;6304117;22;45462;-72
2023/05/31 07:06:59;;;;;;;;;30.75;24.75;;;;;27.74;33.64;102078.59;6303586;22;46039;-75
2023/05/31 07:09:25;;;;;;;;;24.50;22.25;;;;;27.73;33.09;102078.78;6301746;22;45552;-74
2023/05/31 07:11:50;;;;;;;;;25.50;24.00;;;;;27.70;33.74;102069.28;6304318;22;45277;-72
2023/05/31 07:14:15;;;;;;;;;20.00;17.25;;;;;27.76;33.51;102075.75;6304867;22;45324;-72
2023/05/31 07:16:41;;;;;;;;;17.50;16.75;;;;;27.77;33.24;102068.53;6304384;22;46870;-73
2023/05/31 07:19:06;;;;;;;;;26.00;21.00;;;;;27.80;33.29;102081.56;6303892;22;45329;-74
2023/05/31 07:21:32;;;;;;;;;20.50;20.00;;;;;27.80;33.09;102074.38;6305275;22;45302;-73
2023/05/31 07:23:57;;;;;;;;;20.25;16.25;;;;;27.80;33.76;102057.47;6304532;22;45489;-74
2023/05/31 07:26:23;;;;;;;;;17.25;16.25;;;;;27.83;33.47;102082.00;6302304;22;46434;-74
2023/05/31 07:28:52;;;;;;;;;15.50;14.25;;;;;27.82;33.92;102064.28;6304944;22;45277;-74
2023/05/31 07:31:18;;;;;;;;;13.25;13.25;;;;;27.82;33.94;102066.97;6304570;22;45231;-72
2023/05/31 07:33:43;;;;;;;;;16.75;14.25;;;;;27.81;33.81;102062.66;6303953;22;45454;-74
2023/05/31 07:36:09;;;;;;;;;15.00;14.50;;;;;27.81;33.85;102070.69;6302417;22;45918;-74
2023/05/31 07:38:35;;;;;;;;;15.00;13.00;;;;;27.84;33.34;102056.09;6304538;22;45268;-72
2023/05/31 07:41:00;;;;;;;;;17.67;13.67;;;;;27.79;33.63;102072.66;6304692;22;45394;-73
2023/05/31 07:43:29;;;;;;;;;16.00;14.00;;;;;27.82;33.64;102066.97;6304519;22;45487;-72
2023/05/31 07:45:54;;;;;;;;;14.00;13.33;;;;;27.86;33.50;102078.13;6304214;22;45324;-71
2023/05/31 07:48:20;;;;;;;;;11.50;11.50;;;;;27.81;34.17;102075.19;6303446;22;45220;-71
2023/05/31 07:50:46;;;;;;;;;16.50;14.25;;;;;27.88;33.85;102077.94;6304420;22;45213;-72
2023/05/31 07:53:12;;;;;;;;;17.25;15.00;;;;;27.85;33.41;102079.13;6304741;22;45290;-73
2023/05/31 07:55:38;;;;;;;;;15.50;13.75;;;;;27.76;33.65;102054.34;6304226;22;46096;-72
2023/05/31 07:58:03;;;;;;;;;14.00;12.25;;;;;27.87;34.16;102077.09;6304416;22;45259;-71
2023/05/31 08:00:29;;;;;;;;;12.00;10.50;;;;;27.86;33.54;102078.13;6304352;22;45213;-73
2023/05/31 08:02:54;;;;;;;;;10.00;9.00;;;;;27.87;34.30;102082.44;6304113;22;45230;-72
2023/05/31 08:05:20;;;;;;;;;15.50;14.00;;;;;27.78;34.06;102076.38;6303892;22;47099;-73
2023/05/31 08:07:47;;;;;;;;;18.00;14.75;;;;;27.89;34.15;102082.25;6303720;22;45320;-72
2023/05/31 08:10:12;;;;;;;;;16.00;13.00;;;;;27.91;34.43;102080.22;6303859;22;45424;-74
2023/05/31 08:12:37;;;;;;;;;20.25;12.75;;;;;27.93;33.91;102071.00;6304362;22;45371;-73
2023/05/31 08:15:03;;;;;;;;;14.00;11.75;;;;;27.93;33.98;102078.19;6304294;22;46082;-72
2023/05/31 08:17:29;;;;;;;;;11.00;9.33;;;;;27.96;34.12;102070.63;6303556;22;45301;-73
2023/05/31 08:19:55;;;;;;;;;13.67;13.00;;;;;27.99;33.53;102066.72;6302144;22;45349;-73
2023/05/31 08:22:20;;;;;;;;;12.33;12.33;;;;;27.98;33.62;102053.53;6304369;22;45277;-71
2023/05/31 08:24:46;;;;;;;;;12.33;9.33;;;;;27.98;34.25;102054.38;6303911;22;46074;-73
2023/05/31 08:27:11;;;;;;;;;16.00;11.75;;;;;27.96;33.70;102054.56;6302099;22;45353;-73
2023/05/31 08:29:37;;;;;;;;;13.00;12.00;;;;;27.96;34.48;102048.38;6304746;22;45336;-73
2023/05/31 08:32:02;;;;;;;;;12.67;12.67;;;;;27.96;34.13;102038.53;6303921;22;45268;-73
2023/05/31 08:34:28;;;;;;;;;13.00;11.33;;;;;28.01;34.07;102051.31;6304291;22;45247;-73
2023/05/31 08:36:54;;;;;;;;;9.33;9.33;;;;;28.03;34.10;102059.13;6304065;22;45288;-73
2023/05/31 08:39:20;;;;;;;;;12.67;10.67;;;;;28.02;33.78;102046.78;6304126;22;45242;-74
2023/05/31 08:41:58;;;;;;;;;15.50;12.25;;;;;27.99;33.97;102048.00;6304426;22;45268;-73
2023/05/31 08:44:23;;;;;;;;;11.67;9.67;;;;;28.04;34.17;102048.25;6303764;22;45595;-73
2023/05/31 08:46:49;;;;;;;;;15.00;11.00;;;;;28.03;34.31;102035.88;6303490;22;45280;-76
2023/05/31 08:49:16;;;;;;;;;13.67;10.67;;;;;28.06;33.88;102048.06;6302323;22;45358;-74
2023/05/31 08:51:45;;;;;;;;;19.00;13.33;;;;;27.99;33.83;102025.78;6304133;22;45221;-75
2023/05/31 08:54:11;;;;;;;;;14.00;12.00;;;;;28.01;34.38;102029.91;6304526;22;45971;-74
2023/05/31 08:56:38;;;;;;;;;12.67;11.67;;;;;28.04;34.48;102023.34;6303781;22;45308;-75
2023/05/31 08:59:06;;;;;;;;;12.00;9.00;;;;;28.05;34.19;102033.03;6303275;22;45205;-74
2023/05/31 09:01:33;;;;;;;;;13.67;11.00;;;;;28.03;34.04;102024.34;6303539;22;45470;-73
2023/05/31 09:03:59;;;;;;;;;16.67;12.33;;;;;28.09;34.39;102028.13;6303735;22;46134;-73
2023/05/31 09:06:24;;;;;;;;;14.33;11.67;;;;;28.04;34.19;102010.81;6303662;22;45280;-77
2023/05/31 09:08:50;;;;;;;;;20.50;15.25;;;;;28.06;34.28;101997.22;6301571;22;45525;-79
2023/05/31 09:11:16;;;;;;;;;16.00;11.50;;;;;28.09;34.61;102001.38;6301734;22;45575;-77
2023/05/31 09:13:41;;;;;;;;;25.75;14.00;;;;;28.05;34.33;102007.09;6302959;22;45360;-77
2023/05/31 09:16:07;;;;;;;;;23.33;14.67;;;;;28.04;34.62;101994.75;6303462;22;45347;-78
2023/05/31 09:18:36;;;;;;;;;16.00;13.00;;;;;28.07;34.61;101994.38;6304202;22;45479;-76
2023/05/31 09:21:08;;;;;;;;;33.25;15.75;;;;;28.11;34.28;101994.78;6304052;22;45323;-77
2023/05/31 09:23:34;;;;;;;;;35.50;20.75;;;;;28.07;34.29;101982.84;6303709;22;46423;-75
2023/05/31 09:25:59;;;;;;;;;24.00;15.50;;;;;28.10;33.85;101984.31;6303487;22;45256;-76
2023/05/31 09:28:25;;;;;;;;;28.50;16.50;;;;;28.07;34.62;101972.16;6303558;22;45177;-75
2023/05/31 09:31:05;;;;;;;;;22.25;16.50;;;;;28.12;34.09;101992.97;6303361;22;45637;-74
2023/05/31 09:33:40;;;;;;;;;23.50;18.25;;;;;28.07;34.28;101978.31;6304158;22;45301;-74
2023/05/31 09:36:05;;;;;;;;;28.25;17.50;;;;;28.08;34.64;101984.47;6303522;22;45388;-74
2023/05/31 09:38:35;;;;;;;;;23.00;15.50;;;;;28.10;34.40;101979.78;6301994;22;45316;-74
2023/05/31 09:41:20;;;;;;;;;23.25;15.00;;;;;28.10;34.59;101977.09;6304057;22;45216;-74
2023/05/31 09:43:47;;;;;;;;;27.50;13.75;;;;;28.11;34.75;101977.91;6302864;22;46295;-74
2023/05/31 09:46:14;;;;;;;;;21.50;15.25;;;;;28.10;34.25;101976.28;6303969;22;45229;-72
2023/05/31 09:48:41;;;;;;;;;27.75;18.00;;;;;28.09;34.53;101980.78;6303282;22;45317;-72
2023/05/31 09:51:08;;;;;;;;;24.00;13.75;;;;;28.10;34.44;101979.78;6303828;22;45452;-74
2023/05/31 09:53:44;;;;;;;;;20.75;16.00;;;;;28.03;34.33;101954.81;6303691;22;46297;-73
2023/05/31 09:56:21;;;;;;;;;24.00;18.25;;;;;28.05;34.14;101972.31;6303646;22;45206;-73
2023/05/31 09:58:47;;;;;;;;;16.00;13.33;;;;;28.06;33.94;101970.47;6303342;22;45288;-74
2023/05/31 10:01:15;;;;;;;;;16.50;15.00;;;;;28.09;34.76;101969.25;6303267;22;45184;-74
2023/05/31 10:03:40;;;;;;;;;17.00;14.00;;;;;27.99;34.75;101961.59;6303282;22;46369;-73
2023/05/31 10:06:06;;;;;;;;;30.00;13.50;;;;;28.05;34.69;101968.84;6303453;22;45441;-75
2023/05/31 10:08:32;;;;;;;;;17.00;11.50;;;;;28.05;34.38;101972.31;6303751;22;45365;-75
2023/05/31 10:11:02;;;;;;;;;18.25;11.50;;;;;28.06;34.53;101987.38;6303427;22;45274;-76
2023/05/31 10:13:29;;;;;;;;;26.00;16.75;;;;;28.06;35.17;101965.97;6302832;22;46366;-75
2023/05/31 10:15:57;;;;;;;;;17.25;13.50;;;;;28.03;34.91;101957.47;6303348;22;45323;-75
2023/05/31 10:18:28;;;;;;;;;19.50;11.00;;;;;28.04;34.10;101985.91;6303870;22;45304;-75
2023/05/31 10:21:22;;;;;;;;;14.75;13.00;;;;;28.00;34.64;101979.28;6303612;22;45428;-75
2023/05/31 10:24:03;;;;;;;;;14.00;12.00;;;;;27.91;34.49;101951.84;6302859;22;47321;-75
2023/05/31 10:26:48;;;;;;;;;17.33;15.00;;;;;27.87;34.41;101945.25;6303374;22;45277;-75
2023/05/31 10:29:17;;;;;;;;;14.67;12.00;;;;;27.92;34.55;101954.31;6302832;22;45208;-75
2023/05/31 10:31:51;;;;;;;;;16.00;12.33;;;;;27.86;34.14;101957.78;6304022;22;45221;-74
2023/05/31 10:34:20;;;;;;;;;19.00;13.33;;;;;27.89;33.78;101968.09;6303225;22;47538;-74
2023/05/31 10:36:46;;;;;;;;;12.00;10.33;;;;;27.83;33.89;101955.50;6303504;22;45450;-73
2023/05/31 10:39:24;;;;;;;;;17.67;12.00;;;;;27.82;34.09;101975.22;6303698;22;45347;-74
2023/05/31 10:41:57;;;;;;;;;14.00;10.00;;;;;27.77;33.30;101966.91;6302905;22;45161;-74
2023/05/31 10:44:33;;;;;;;;;12.67;11.67;;;;;27.63;33.50;101927.56;6304738;22;46449;-74
2023/05/31 10:47:02;;;;;;;;;9.33;8.67;;;;;27.68;33.20;101940.34;6304491;22;45344;-74
2023/05/31 10:49:32;;;;;;;;;12.00;10.33;;;;;27.68;33.16;101975.09;6304865;22;45255;-74
2023/05/31 10:52:05;;;;;;;;;9.33;9.33;;;;;27.69;33.55;101954.53;6305041;22;45451;-74
2023/05/31 10:54:32;;;;;;;;;11.00;9.67;;;;;27.67;33.33;101949.38;6305175;22;47528;-71
2023/05/31 10:56:58;;;;;;;;;9.00;8.67;;;;;27.69;33.02;101949.19;6304815;22;45316;-73
2023/05/31 10:59:25;;;;;;;;;11.00;8.00;;;;;27.62;32.91;101939.25;6305097;22;45269;-74
2023/05/31 11:01:51;;;;;;;;;12.00;9.67;;;;;27.56;32.83;101937.34;6303556;22;45414;-75
2023/05/31 11:04:24;;;;;;;;;8.00;7.00;;;;;27.50;32.52;101943.47;6303165;22;46396;-75
2023/05/31 11:06:55;;;;;;;;;12.33;7.67;;;;;27.52;32.18;101949.44;6304918;22;45215;-75
2023/05/31 11:09:21;;;;;;;;;9.67;8.67;;;;;27.36;32.14;101913.94;6304820;22;45218;-75
2023/05/31 11:11:49;;;;;;;;;10.00;8.00;;;;;27.44;32.82;101934.38;6304512;22;45292;-75
2023/05/31 11:14:25;;;;;;;;;7.33;6.33;;;;;27.44;32.44;101938.88;6304800;22;45342;-72
2023/05/31 11:16:52;;;;;;;;;11.00;8.33;;;;;27.43;32.30;101934.56;6303190;22;45309;-75
2023/05/31 11:19:20;;;;;;;;;8.33;6.67;;;;;27.47;32.80;101914.44;6304820;22;45223;-76